Time;durP1;ratioP1;P1;durP2;ratioP2;P2;SDS_P1;SDS_P2;PMS_P1;PMS_P2;Temp;Humidity;BMP_temperature;BMP_pressure;BME280_temperature;BME280_humidity;BME280_pressure;Samples;Min_cycle;Max_cycle;Signal;HPM_P1;HPM_P2
2023/01/11 00:01:37;;;;;;;4.93;3.00;;;7.20;99.90;;;;;;4988575;28;21042;-68
2023/01/11 00:04:04;;;;;;;5.53;2.93;;;7.10;99.90;;;;;;4968331;27;20702;-68
2023/01/11 00:06:31;;;;;;;3.30;3.00;;;7.20;99.90;;;;;;4986950;27;20210;-68
2023/01/11 00:08:58;;;;;;;5.73;3.13;;;7.20;99.90;;;;;;4998533;27;20206;-68
2023/01/11 00:11:25;;;;;;;6.77;2.80;;;7.10;99.90;;;;;;4975533;27;20242;-68
2023/01/11 00:13:53;;;;;;;5.90;3.33;;;7.30;99.90;;;;;;4987466;28;20202;-68
2023/01/11 00:16:20;;;;;;;5.13;3.20;;;7.30;99.90;;;;;;4985963;27;20333;-68
2023/01/11 00:18:47;;;;;;;4.63;3.43;;;7.30;99.90;;;;;;5010080;27;20758;-68
2023/01/11 00:21:14;;;;;;;3.93;3.30;;;7.30;99.90;;;;;;4971429;28;20981;-68
2023/01/11 00:23:41;;;;;;;2.97;2.77;;;7.40;99.90;;;;;;5003635;28;20253;-68
2023/01/11 00:26:11;;;;;;;4.53;3.30;;;7.40;99.90;;;;;;4999287;28;20199;-68
2023/01/11 00:28:38;;;;;;;5.67;3.40;;;7.40;99.90;;;;;;4993330;28;20221;-69
2023/01/11 00:31:06;;;;;;;4.20;3.17;;;7.40;99.90;;;;;;5003510;28;20226;-68
2023/01/11 00:33:33;;;;;;;6.97;3.63;;;7.50;99.90;;;;;;4991209;28;20218;-68
2023/01/11 00:36:00;;;;;;;4.47;3.40;;;7.50;99.90;;;;;;4980111;28;20206;-68
2023/01/11 00:38:50;;;;;;;3.67;3.37;;;7.40;99.90;;;;;;4998970;28;20258;-68
2023/01/11 00:49:33;;;;;;;5.87;3.33;;;7.60;99.90;;;;;;4999851;28;20868;-68
2023/01/11 00:52:00;;;;;;;3.47;3.17;;;7.60;99.90;;;;;;4980349;28;20210;-68
2023/01/11 00:54:27;;;;;;;3.80;3.50;;;7.60;99.90;;;;;;4998377;28;20293;-68
2023/01/11 00:56:53;;;;;;;4.77;3.73;;;7.70;99.90;;;;;;5004606;28;20210;-68
2023/01/11 00:59:20;;;;;;;5.10;3.57;;;7.70;99.90;;;;;;4981865;28;20242;-68
2023/01/11 01:01:48;;;;;;;3.67;3.27;;;7.70;99.90;;;;;;5003595;28;20234;-68
2023/01/11 01:04:15;;;;;;;5.47;3.37;;;7.80;99.90;;;;;;4989068;28;20679;-68
2023/01/11 01:06:42;;;;;;;4.40;3.67;;;7.80;99.90;;;;;;4965368;28;20215;-68
2023/01/11 01:09:09;;;;;;;4.17;3.23;;;7.80;99.90;;;;;;4998425;28;20205;-68
2023/01/11 01:11:35;;;;;;;3.60;3.30;;;7.90;99.90;;;;;;5002308;28;20206;-68
2023/01/11 01:16:48;;;;;;;4.90;3.47;;;7.90;99.90;;;;;;4993150;27;20243;-68
2023/01/11 01:19:15;;;;;;;3.77;3.47;;;7.90;99.90;;;;;;4992842;27;20782;-68
2023/01/11 01:21:42;;;;;;;4.30;3.50;;;7.90;99.90;;;;;;4978769;28;20229;-68
2023/01/11 01:24:09;;;;;;;4.97;3.83;;;7.90;99.90;;;;;;5001640;28;20205;-69
2023/01/11 01:26:36;;;;;;;5.87;4.20;;;7.90;99.90;;;;;;5006923;28;20202;-68
2023/01/11 01:29:03;;;;;;;6.40;3.50;;;8.00;99.90;;;;;;4992690;27;20545;-68
2023/01/11 01:31:30;;;;;;;4.60;3.70;;;8.00;99.90;;;;;;4992748;27;20202;-68
2023/01/11 01:33:58;;;;;;;4.80;4.27;;;8.00;99.90;;;;;;4988096;27;20280;-68
2023/01/11 01:36:25;;;;;;;4.50;4.10;;;8.00;99.90;;;;;;4975979;27;20218;-68
2023/01/11 01:38:52;;;;;;;4.23;3.80;;;;;;;;;;4981297;28;20229;-68
2023/01/11 01:41:19;;;;;;;4.23;3.83;;;8.10;99.90;;;;;;4996075;27;20238;-68
2023/01/11 01:43:49;;;;;;;5.40;4.00;;;8.20;99.90;;;;;;4988465;28;20198;-68
2023/01/11 01:46:16;;;;;;;4.20;3.80;;;8.10;99.90;;;;;;4996057;27;20215;-68
2023/01/11 01:48:46;;;;;;;4.30;3.80;;;8.20;99.90;;;;;;5004935;27;20284;-68
2023/01/11 01:51:19;;;;;;;6.23;4.03;;;8.20;99.90;;;;;;4991260;27;20206;-68
2023/01/11 01:53:50;;;;;;;4.10;3.70;;;8.20;99.90;;;;;;4974044;28;20211;-68
2023/01/11 01:56:24;;;;;;;4.77;4.27;;;8.30;99.90;;;;;;4999482;27;20209;-68
2023/01/11 01:58:54;;;;;;;5.47;4.17;;;8.20;99.90;;;;;;4992853;28;20936;-68
2023/01/11 02:04:09;;;;;;;4.77;4.03;;;8.30;99.90;;;;;;4998854;27;20898;-68
2023/01/11 02:06:38;;;;;;;6.13;4.53;;;8.30;99.90;;;;;;4987070;27;20679;-68
2023/01/11 02:09:11;;;;;;;4.80;4.40;;;8.30;99.90;;;;;;4969725;27;20217;-69
2023/01/11 02:11:42;;;;;;;4.80;4.30;;;8.40;99.90;;;;;;5000278;27;20206;-68
2023/01/11 02:14:12;;;;;;;4.17;3.77;;;10.50;99.90;;;;;;4989655;27;20212;-68
2023/01/11 02:16:39;;;;;;;4.63;4.10;;;8.40;99.90;;;;;;4984851;27;20206;-69
2023/01/11 02:19:10;;;;;;;5.27;4.00;;;8.40;99.90;;;;;;4983680;28;20206;-68
2023/01/11 02:21:51;;;;;;;5.30;4.60;;;8.40;99.90;;;;;;4987182;27;20609;-69
2023/01/11 02:24:48;;;;;;;4.73;4.30;;;8.40;99.90;;;;;;4963383;28;20681;-68
2023/01/11 02:27:35;;;;;;;4.60;4.00;;;8.40;99.90;;;;;;4995322;27;20209;-68
2023/01/11 02:30:12;;;;;;;4.20;3.80;;;8.50;99.90;;;;;;4982638;27;20222;-68
2023/01/11 02:32:48;;;;;;;4.37;3.97;;;8.50;99.90;;;;;;4983839;27;20206;-68
2023/01/11 02:35:24;;;;;;;4.97;4.10;;;8.50;99.90;;;;;;4988092;27;20217;-69
2023/01/11 02:37:56;;;;;;;4.80;4.40;;;8.60;99.90;;;;;;4989060;28;20750;-68
2023/01/11 02:40:33;;;;;;;4.40;4.00;;;8.60;99.90;;;;;;4972479;27;20226;-68
2023/01/11 02:46:00;;;;;;;4.73;4.33;;;8.60;99.90;;;;;;4989826;27;20247;-68
2023/01/11 02:48:31;;;;;;;4.93;4.37;;;8.70;99.90;;;;;;4988813;28;20663;-68
2023/01/11 02:51:05;;;;;;;4.70;4.30;;;8.60;99.90;;;;;;5001733;27;20202;-68
2023/01/11 02:53:37;;;;;;;5.27;4.57;;;8.60;99.90;;;;;;4978319;27;20480;-68
2023/01/11 02:56:09;;;;;;;8.57;4.83;;;8.70;99.90;;;;;;4973998;28;20226;-68
2023/01/11 02:58:39;;;;;;;5.30;4.80;;;8.80;99.90;;;;;;4998477;28;20288;-68
2023/01/11 03:01:08;;;;;;;7.50;4.30;;;8.60;99.90;;;;;;4986818;27;20230;-68
2023/01/11 03:03:35;;;;;;;5.63;5.03;;;8.70;99.90;;;;;;4983426;28;20207;-69
2023/01/11 03:06:05;;;;;;;5.03;4.40;;;8.70;99.90;;;;;;5004013;28;20417;-69
2023/01/11 03:08:56;;;;;;;4.40;4.00;;;8.70;99.90;;;;;;4994958;28;20213;-69
2023/01/11 03:14:21;;;;;;;4.47;4.07;;;8.80;99.90;;;;;;5004796;28;20198;-69
2023/01/11 03:16:54;;;;;;;4.90;4.33;;;8.80;99.90;;;;;;4982138;27;20426;-69
2023/01/11 03:19:30;;;;;;;4.73;4.03;;;8.80;99.90;;;;;;4989586;28;20210;-69
2023/01/11 03:22:04;;;;;;;7.90;4.53;;;8.80;99.90;;;;;;5002383;28;20221;-69
2023/01/11 03:24:38;;;;;;;5.90;4.40;;;8.80;99.90;;;;;;4979045;28;20973;-68
2023/01/11 03:27:14;;;;;;;5.70;4.90;;;8.90;99.90;;;;;;4998110;28;20209;-69
2023/01/11 03:29:49;;;;;;;10.37;5.20;;;8.90;99.90;;;;;;4996620;28;20193;-69
2023/01/11 03:32:26;;;;;;;4.33;3.87;;;8.90;99.90;;;;;;4989771;27;20613;-68
2023/01/11 03:35:03;;;;;;;5.10;4.37;;;8.90;99.90;;;;;;4992927;28;20271;-68
2023/01/11 03:37:37;;;;;;;7.50;4.53;;;8.90;99.90;;;;;;4991821;28;20659;-68
2023/01/11 03:40:10;;;;;;;4.17;3.87;;;8.90;99.90;;;;;;4998593;27;20225;-68
2023/01/11 03:43:09;;;;;;;4.90;3.87;;;8.90;99.90;;;;;;4982524;28;20229;-69
2023/01/11 03:45:31;;;;;;;4.67;4.27;;;8.90;99.90;;;;;;5001596;28;20289;-69
2023/01/11 03:48:02;;;;;;;4.20;3.80;;;9.00;99.90;;;;;;5007162;27;20198;-69
2023/01/11 03:50:30;;;;;;;4.83;4.13;;;9.00;99.90;;;;;;4994161;27;20213;-68
2023/01/11 03:53:00;;;;;;;4.10;3.80;;;9.00;99.90;;;;;;4997048;27;20210;-69
2023/01/11 03:55:30;;;;;;;4.20;3.83;;;9.10;99.90;;;;;;4995186;27;20202;-69
2023/01/11 03:57:58;;;;;;;4.90;3.58;;;9.00;99.90;;;;;;4982765;28;20212;-68
2023/01/11 04:00:27;;;;;;;4.53;3.60;;;9.00;99.90;;;;;;5004804;28;20202;-69
2023/01/11 04:02:54;;;;;;;4.00;3.63;;;9.10;99.90;;;;;;5000296;28;20289;-68
2023/01/11 04:05:23;;;;;;;3.93;3.63;;;9.00;99.90;;;;;;5002254;28;20668;-69
2023/01/11 04:07:50;;;;;;;3.73;3.30;;;9.00;99.90;;;;;;4976324;28;20214;-69
2023/01/11 04:10:17;;;;;;;4.00;3.57;;;9.10;99.90;;;;;;4995465;28;20649;-68
2023/01/11 04:12:46;;;;;;;3.80;3.40;;;9.10;99.90;;;;;;4971507;28;20218;-68
2023/01/11 04:15:13;;;;;;;3.50;3.20;;;9.10;99.90;;;;;;5004148;28;20198;-68
2023/01/11 04:17:40;;;;;;;3.80;3.50;;;9.10;99.90;;;;;;4990632;28;20199;-69
2023/01/11 04:20:09;;;;;;;3.38;3.08;;;9.20;99.90;;;;;;5000550;28;20211;-69
2023/01/11 04:22:37;;;;;;;3.78;3.47;;;9.20;99.90;;;;;;4987372;28;20226;-69
2023/01/11 04:25:05;;;;;;;3.40;3.10;;;9.10;99.90;;;;;;4981604;28;20337;-69
2023/01/11 04:27:32;;;;;;;3.20;2.90;;;9.20;99.90;;;;;;4968319;28;20220;-69
2023/01/11 04:29:59;;;;;;;4.70;3.22;;;9.20;99.90;;;;;;4998021;28;20202;-69
2023/01/11 04:32:25;;;;;;;3.58;3.28;;;9.20;99.90;;;;;;4994222;28;20676;-69
2023/01/11 04:34:52;;;;;;;3.00;2.70;;;9.20;99.90;;;;;;4997841;28;20542;-69
2023/01/11 04:37:19;;;;;;;3.57;3.20;;;9.20;99.90;;;;;;4988556;28;20206;-69
2023/01/11 04:39:47;;;;;;;2.97;2.77;;;9.20;99.90;;;;;;4985196;28;20231;-69
2023/01/11 04:42:20;;;;;;;2.92;2.65;;;9.20;99.90;;;;;;4967375;28;20230;-69
2023/01/11 04:44:48;;;;;;;2.70;2.50;;;9.30;99.90;;;;;;4998260;28;20199;-69
2023/01/11 04:47:15;;;;;;;3.42;3.13;;;9.20;99.90;;;;;;5003069;27;20829;-69
2023/01/11 04:49:42;;;;;;;3.23;2.90;;;9.30;99.90;;;;;;4977776;28;20222;-69
2023/01/11 04:52:10;;;;;;;2.95;2.65;;;9.30;99.90;;;;;;4988718;28;20240;-69
2023/01/11 04:54:37;;;;;;;2.60;2.40;;;9.30;99.90;;;;;;4981680;28;20259;-69
2023/01/11 04:57:06;;;;;;;2.75;2.55;;;9.30;99.90;;;;;;4954040;28;20344;-69
2023/01/11 04:59:34;;;;;;;2.67;2.47;;;9.30;99.90;;;;;;5007400;28;20575;-69
2023/01/11 05:02:00;;;;;;;3.00;2.80;;;9.30;99.90;;;;;;5000295;28;20229;-69
2023/01/11 05:04:27;;;;;;;2.83;2.45;;;9.40;99.90;;;;;;5006349;28;20197;-69
2023/01/11 05:06:54;;;;;;;3.38;2.50;;;9.40;99.90;;;;;;5005210;28;20205;-69
2023/01/11 05:09:21;;;;;;;2.50;2.30;;;9.40;99.90;;;;;;4998317;28;20199;-69
2023/01/11 05:11:48;;;;;;;3.22;2.42;;;9.40;99.90;;;;;;4964148;28;20210;-69
2023/01/11 05:14:17;;;;;;;4.43;2.47;;;9.40;99.90;;;;;;5001798;28;20229;-69
2023/01/11 05:16:43;;;;;;;2.60;2.40;;;9.50;99.90;;;;;;4992459;28;20202;-69
2023/01/11 05:19:11;;;;;;;2.80;2.60;;;9.50;99.90;;;;;;5001686;28;20222;-68
2023/01/11 05:21:39;;;;;;;2.40;2.20;;;9.50;99.90;;;;;;4992729;28;20230;-69
2023/01/11 05:24:08;;;;;;;2.40;2.20;;;9.50;99.90;;;;;;4971730;28;20623;-69
2023/01/11 05:26:37;;;;;;;2.88;2.38;;;9.50;99.90;;;;;;4947366;28;20615;-70
2023/01/11 05:29:05;;;;;;;3.42;3.13;;;9.50;99.90;;;;;;4985225;28;20198;-69
2023/01/11 05:31:36;;;;;;;2.97;2.67;;;9.60;99.90;;;;;;4991647;28;20210;-69
2023/01/11 05:34:03;;;;;;;2.85;2.47;;;9.60;99.90;;;;;;4974151;28;20230;-69
2023/01/11 05:36:30;;;;;;;3.10;2.80;;;9.60;99.90;;;;;;5004355;28;20655;-69
2023/01/11 05:38:57;;;;;;;2.85;2.65;;;9.60;99.90;;;;;;4979840;28;20939;-69
2023/01/11 05:41:26;;;;;;;2.88;2.67;;;9.60;99.90;;;;;;4963279;28;21212;-69
2023/01/11 05:46:42;;;;;;;3.33;3.03;;;9.70;99.90;;;;;;4986090;28;20287;-69
2023/01/11 05:49:10;;;;;;;6.10;4.55;;;9.70;99.90;;;;;;4980671;28;20230;-69
2023/01/11 05:51:37;;;;;;;5.60;5.05;;;9.70;99.90;;;;;;4963293;28;21267;-69
2023/01/11 05:54:06;;;;;;;7.63;6.28;;;9.70;99.90;;;;;;4977251;28;20278;-69
2023/01/11 05:56:33;;;;;;;8.70;7.28;;;9.80;99.90;;;;;;4973909;28;20214;-69
2023/01/11 05:59:00;;;;;;;9.23;7.03;;;9.80;99.90;;;;;;4960624;28;20225;-69
2023/01/11 06:01:27;;;;;;;6.57;5.85;;;9.90;99.90;;;;;;5002186;28;20230;-68
2023/01/11 06:03:55;;;;;;;7.57;4.65;;;9.80;99.90;;;;;;4981749;28;20234;-69
2023/01/11 06:06:22;;;;;;;5.97;5.38;;;9.90;99.90;;;;;;4989519;27;20214;-68
2023/01/11 06:08:49;;;;;;;5.07;4.57;;;9.90;99.90;;;;;;4981974;28;20205;-69
2023/01/11 06:11:16;;;;;;;5.82;5.22;;;9.90;99.90;;;;;;4988949;27;20210;-67
2023/01/11 06:13:43;;;;;;;5.57;5.07;;;9.90;99.90;;;;;;4966489;28;20247;-69
2023/01/11 06:16:11;;;;;;;5.85;4.68;;;9.90;99.90;;;;;;4991618;27;20229;-69
2023/01/11 06:18:40;;;;;;;3.42;3.13;;;9.90;99.90;;;;;;4986023;27;20241;-69
2023/01/11 06:21:09;;;;;;;3.40;3.10;;;10.00;99.90;;;;;;4983565;28;20219;-69
2023/01/11 06:23:37;;;;;;;3.00;2.80;;;10.00;99.90;;;;;;4969622;28;20226;-69
2023/01/11 06:26:07;;;;;;;3.45;3.00;;;10.00;99.90;;;;;;4983543;27;20199;-69
2023/01/11 06:28:35;;;;;;;3.20;3.00;;;10.00;99.90;;;;;;4992222;27;20199;-69
2023/01/11 06:31:03;;;;;;;3.10;2.80;;;10.00;99.90;;;;;;4956641;27;20261;-69
2023/01/11 06:33:31;;;;;;;2.90;2.70;;;10.00;99.90;;;;;;4979050;28;20350;-69
2023/01/11 06:35:58;;;;;;;2.80;2.60;;;10.10;99.90;;;;;;4984223;27;20347;-69
2023/01/11 06:38:26;;;;;;;3.60;3.10;;;10.00;99.90;;;;;;4994166;28;20843;-69
2023/01/11 06:40:55;;;;;;;3.35;3.05;;;10.10;99.90;;;;;;4980075;27;20936;-69
2023/01/11 06:43:23;;;;;;;3.65;3.30;;;10.10;99.90;;;;;;4990428;28;20218;-69
2023/01/11 06:45:50;;;;;;;9.02;2.97;;;10.10;99.90;;;;;;4952396;27;21381;-69
2023/01/11 06:48:17;;;;;;;3.15;2.90;;;10.10;99.90;;;;;;4981437;28;20236;-69
2023/01/11 06:50:44;;;;;;;2.80;2.60;;;10.10;99.90;;;;;;4987343;28;20201;-69
2023/01/11 06:53:11;;;;;;;3.42;2.97;;;10.20;99.90;;;;;;4966349;27;20248;-69
2023/01/11 06:55:39;;;;;;;3.20;2.90;;;10.30;99.90;;;;;;4991663;27;20715;-69
2023/01/11 06:58:06;;;;;;;6.82;1.67;;;10.30;99.90;;;;;;4979626;28;22162;-69
2023/01/11 07:00:33;;;;;;;3.67;1.48;;;10.00;99.90;;;;;;4988164;28;20223;-69
2023/01/11 07:03:02;;;;;;;1.10;1.00;;;10.00;99.90;;;;;;4975592;28;20973;-69
2023/01/11 07:05:29;;;;;;;0.63;0.60;;;9.60;99.90;;;;;;4998417;28;20315;-69
2023/01/11 07:07:56;;;;;;;0.80;0.68;;;9.60;99.90;;;;;;4974527;28;20233;-69
2023/01/11 07:10:23;;;;;;;2.25;0.88;;;9.40;99.90;;;;;;4981502;27;20233;-69
2023/01/11 07:12:52;;;;;;;6.43;1.10;;;9.50;99.90;;;;;;4984092;27;20252;-69
2023/01/11 07:15:19;;;;;;;0.80;0.68;;;9.40;99.90;;;;;;5010745;23;20239;-69
2023/01/11 07:17:48;;;;;;;4.32;1.10;;;9.40;99.90;;;;;;4984611;28;21025;-69
2023/01/11 07:20:16;;;;;;;1.95;0.90;;;9.30;99.90;;;;;;5029537;28;20202;-69
2023/01/11 07:22:43;;;;;;;2.33;0.70;;;9.30;99.90;;;;;;5031927;28;20244;-69
2023/01/11 07:25:10;;;;;;;4.70;1.08;;;9.30;99.90;;;;;;5034097;28;21136;-69
2023/01/11 07:27:37;;;;;;;1.20;0.65;;;9.30;99.90;;;;;;5038275;28;20193;-69
2023/01/11 07:30:07;;;;;;;1.13;0.70;;;9.30;99.90;;;;;;5042431;28;20208;-69
2023/01/11 07:32:34;;;;;;;1.48;0.80;;;9.20;99.90;;;;;;5012621;28;20204;-69
2023/01/11 07:35:01;;;;;;;3.53;0.77;;;9.30;99.90;;;;;;5047181;28;20275;-69
2023/01/11 07:37:31;;;;;;;1.98;1.20;;;9.30;99.90;;;;;;5039430;28;20231;-69
2023/01/11 07:39:58;;;;;;;4.00;1.13;;;9.20;99.90;;;;;;5049060;28;20204;-69
2023/01/11 07:45:11;;;;;;;1.42;0.85;;;9.30;99.90;;;;;;5035445;28;20618;-69
2023/01/11 07:47:38;;;;;;;2.58;0.95;;;9.30;99.90;;;;;;5029378;28;20197;-69
2023/01/11 07:50:06;;;;;;;3.90;1.55;;;9.40;99.90;;;;;;5021345;28;20682;-69
2023/01/11 07:52:33;;;;;;;6.68;1.80;;;9.30;99.90;;;;;;5041365;28;20200;-69
2023/01/11 07:55:01;;;;;;;6.03;2.72;;;9.30;99.90;;;;;;5035944;28;20342;-69
2023/01/11 07:57:28;;;;;;;5.32;2.05;;;9.30;99.90;;;;;;5047599;28;20275;-69
2023/01/11 07:59:55;;;;;;;9.02;2.35;;;9.30;99.90;;;;;;5030122;28;20204;-69
2023/01/11 08:02:23;;;;;;;4.10;2.40;;;9.20;99.90;;;;;;5019725;28;20748;-69
2023/01/11 08:04:50;;;;;;;7.57;2.58;;;9.30;99.90;;;;;;5009623;28;20224;-69
2023/01/11 08:07:17;;;;;;;5.75;1.70;;;9.20;99.90;;;;;;5028182;28;20204;-70
2023/01/11 08:09:44;;;;;;;2.08;1.30;;;9.20;99.90;;;;;;5022530;28;20204;-69
2023/01/11 08:14:55;;;;;;;9.80;1.50;;;9.20;99.90;;;;;;5023622;28;20736;-69
2023/01/11 08:17:23;;;;;;;1.65;1.00;;;9.20;99.90;;;;;;5045517;28;20221;-69
2023/01/11 08:19:50;;;;;;;3.80;1.10;;;9.20;99.90;;;;;;5005278;28;20212;-69
2023/01/11 08:22:17;;;;;;;3.13;1.10;;;9.20;99.90;;;;;;5044877;28;20315;-69
2023/01/11 08:24:44;;;;;;;2.00;0.82;;;9.20;99.90;;;;;;5044494;28;20273;-70
2023/01/11 08:27:11;;;;;;;1.30;0.77;;;9.20;99.90;;;;;;5046220;28;20198;-70
2023/01/11 08:29:38;;;;;;;7.43;1.15;;;9.10;99.90;;;;;;5035780;28;20201;-69
2023/01/11 08:32:06;;;;;;;2.53;0.60;;;9.20;99.90;;;;;;5045349;28;20313;-69
2023/01/11 08:34:34;;;;;;;4.35;1.15;;;9.10;99.90;;;;;;5045222;28;20197;-69
2023/01/11 08:37:02;;;;;;;0.90;0.90;;;9.20;99.90;;;;;;5014833;28;20210;-69
2023/01/11 08:39:29;;;;;;;3.15;1.25;;;9.10;99.90;;;;;;5047216;28;20195;-69
2023/01/11 08:41:57;;;;;;;1.00;0.90;;;9.10;99.90;;;;;;5043380;28;20221;-70
2023/01/11 08:44:24;;;;;;;4.07;1.00;;;9.10;99.90;;;;;;5036100;28;20254;-69
2023/01/11 08:46:51;;;;;;;4.38;1.77;;;9.10;99.90;;;;;;5038771;28;20215;-70
2023/01/11 08:49:17;;;;;;;5.63;2.08;;;9.10;99.90;;;;;;5042595;28;20657;-70
2023/01/11 08:51:46;;;;;;;1.70;1.40;;;9.10;99.90;;;;;;5031857;28;20211;-70
2023/01/11 08:54:16;;;;;;;5.53;1.40;;;9.00;99.90;;;;;;5044644;28;20623;-70
2023/01/11 08:56:43;;;;;;;3.28;1.30;;;9.00;99.90;;;;;;5044920;28;20225;-70
2023/01/11 08:59:10;;;;;;;2.75;1.20;;;9.00;99.90;;;;;;5047406;28;21828;-69
2023/01/11 09:01:37;;;;;;;3.47;1.10;;;9.00;99.90;;;;;;5034431;28;20206;-69
2023/01/11 09:04:04;;;;;;;5.43;1.67;;;9.10;99.90;;;;;;5047479;28;20354;-69
2023/01/11 09:06:31;;;;;;;3.42;1.38;;;9.00;99.90;;;;;;5039268;28;20197;-69
2023/01/11 09:08:59;;;;;;;6.20;1.50;;;9.00;99.90;;;;;;5016029;28;20280;-69
2023/01/11 09:14:10;;;;;;;6.85;1.08;;;9.00;99.90;;;;;;5040401;28;20245;-69
2023/01/11 09:16:37;;;;;;;2.53;1.48;;;9.10;99.90;;;;;;5037494;28;20220;-69
2023/01/11 09:19:04;;;;;;;5.22;1.50;;;9.10;99.90;;;;;;5046078;28;20192;-69
2023/01/11 09:21:31;;;;;;;2.67;1.33;;;9.10;99.90;;;;;;5047704;28;20200;-69
2023/01/11 09:23:59;;;;;;;3.22;1.38;;;9.20;99.90;;;;;;5010897;28;20301;-69
2023/01/11 09:26:26;;;;;;;4.90;1.52;;;9.10;99.90;;;;;;5045627;28;20221;-69
2023/01/11 09:28:52;;;;;;;6.65;1.77;;;9.20;99.90;;;;;;5042830;28;20586;-69
2023/01/11 09:31:19;;;;;;;3.60;1.73;;;9.20;99.90;;;;;;5021476;28;20749;-70
2023/01/11 09:33:46;;;;;;;4.50;1.85;;;9.20;99.90;;;;;;5042742;28;20209;-69
2023/01/11 09:36:13;;;;;;;1.67;1.55;;;9.20;99.90;;;;;;5039836;28;20212;-69
2023/01/11 09:38:40;;;;;;;3.38;1.50;;;9.20;99.90;;;;;;5012339;28;20212;-69
2023/01/11 09:41:26;;;;;;;4.53;1.45;;;9.30;99.90;;;;;;5049112;28;21402;-69
2023/01/11 09:44:03;;;;;;;4.60;1.92;;;9.30;99.90;;;;;;5042745;28;20227;-69
2023/01/11 09:46:32;;;;;;;4.78;1.65;;;9.30;99.90;;;;;;5028926;28;20235;-69
2023/01/11 09:48:59;;;;;;;7.78;2.42;;;9.30;99.90;;;;;;5022373;28;20217;-70
2023/01/11 09:51:33;;;;;;;8.13;2.92;;;9.40;99.90;;;;;;5033719;28;20209;-69
2023/01/11 09:54:04;;;;;;;7.10;4.45;;;9.40;99.90;;;;;;5014649;28;20215;-70
2023/01/11 09:56:41;;;;;;;6.65;4.72;;;9.40;99.90;;;;;;5046017;28;20336;-69
2023/01/11 09:59:16;;;;;;;9.25;5.25;;;9.40;99.90;;;;;;5048901;28;20204;-69
2023/01/11 10:01:48;;;;;;;8.45;5.00;;;9.40;99.90;;;;;;5035337;28;20201;-69
2023/01/11 10:04:39;;;;;;;5.15;3.22;;;9.50;99.90;;;;;;5002235;28;20259;-69
2023/01/11 10:07:28;;;;;;;4.72;2.67;;;9.40;99.90;;;;;;5034265;28;20217;-69
2023/01/11 10:10:08;;;;;;;6.10;2.10;;;9.50;99.90;;;;;;5008727;28;20262;-69
2023/01/11 10:12:46;;;;;;;7.47;2.17;;;9.50;99.90;;;;;;5045250;28;20201;-69
2023/01/11 10:15:22;;;;;;;4.45;1.88;;;9.60;99.90;;;;;;5040505;28;20332;-69
2023/01/11 10:18:02;;;;;;;6.03;1.77;;;9.60;99.90;;;;;;5046819;28;20220;-69
2023/01/11 10:20:36;;;;;;;4.40;1.95;;;9.70;99.90;;;;;;5036103;28;20203;-70
2023/01/11 10:23:10;;;;;;;7.75;2.30;;;9.70;99.90;;;;;;5029094;28;20225;-69
2023/01/11 10:25:46;;;;;;;8.32;1.98;;;9.70;99.90;;;;;;5006748;28;20209;-70
2023/01/11 10:28:25;;;;;;;6.68;2.13;;;9.70;99.90;;;;;;5044314;28;20196;-69
2023/01/11 10:31:06;;;;;;;6.85;2.33;;;9.90;99.90;;;;;;5046392;28;20197;-69
2023/01/11 10:34:08;;;;;;;7.88;1.85;;;9.90;99.90;;;;;;5031213;28;20215;-69
2023/01/11 10:37:00;;;;;;;14.75;1.77;;;9.80;99.90;;;;;;5046193;28;20196;-69
2023/01/11 10:39:50;;;;;;;8.57;1.83;;;9.80;99.90;;;;;;5024034;28;21864;-69
2023/01/11 10:42:21;;;;;;;7.45;2.03;;;9.70;99.90;;;;;;5019588;28;20219;-69
2023/01/11 10:44:58;;;;;;;11.15;2.25;;;9.70;99.90;;;;;;5037081;28;20228;-69
2023/01/11 10:47:29;;;;;;;12.38;2.10;;;9.70;99.90;;;;;;5041834;28;20203;-69
2023/01/11 10:50:02;;;;;;;4.25;1.38;;;9.60;99.90;;;;;;5028296;28;20231;-69
2023/01/11 10:52:37;;;;;;;6.88;2.00;;;9.60;99.90;;;;;;5035328;28;20220;-69
2023/01/11 10:55:12;;;;;;;7.15;1.40;;;9.60;99.90;;;;;;5028631;28;20273;-69
2023/01/11 10:57:54;;;;;;;4.28;1.10;;;9.60;99.90;;;;;;5006276;28;20290;-70
2023/01/11 11:00:32;;;;;;;9.00;2.20;;;9.60;99.90;;;;;;5033945;28;20263;-70
2023/01/11 11:03:22;;;;;;;5.88;1.83;;;9.60;99.90;;;;;;5033314;28;20230;-69
2023/01/11 11:05:56;;;;;;;4.53;1.60;;;9.50;99.90;;;;;;5028400;28;20205;-69
2023/01/11 11:08:28;;;;;;;6.93;1.67;;;9.50;99.90;;;;;;5043885;28;20227;-69
2023/01/11 11:11:00;;;;;;;6.28;1.55;;;9.50;99.90;;;;;;5004318;28;20675;-70
2023/01/11 11:13:39;;;;;;;4.13;1.48;;;9.50;99.90;;;;;;5035277;28;20815;-69
2023/01/11 11:16:14;;;;;;;8.32;1.90;;;9.50;99.90;;;;;;5035458;28;20225;-69
2023/01/11 11:18:42;;;;;;;4.88;1.70;;;9.40;99.90;;;;;;5039966;28;20228;-69
2023/01/11 11:21:22;;;;;;;7.25;1.90;;;9.40;99.90;;;;;;5031368;28;20228;-69
2023/01/11 11:23:55;;;;;;;6.05;1.52;;;9.40;99.90;;;;;;5036031;28;20243;-69
2023/01/11 11:26:31;;;;;;;5.43;1.50;;;9.30;99.90;;;;;;5021340;28;20221;-69
2023/01/11 11:29:03;;;;;;;9.10;1.80;;;9.40;99.90;;;;;;5041082;28;20857;-69
2023/01/11 11:31:34;;;;;;;4.47;1.38;;;9.40;99.90;;;;;;5047642;28;20204;-69
2023/01/11 11:34:05;;;;;;;3.17;1.40;;;9.40;99.90;;;;;;5046676;28;20204;-69
2023/01/11 11:36:41;;;;;;;9.27;1.75;;;9.40;99.90;;;;;;5046500;28;20761;-70
2023/01/11 11:39:11;;;;;;;5.75;1.88;;;9.40;99.90;;;;;;5034287;28;20205;-69
2023/01/11 11:41:49;;;;;;;7.63;1.80;;;9.40;99.90;;;;;;5022549;28;20290;-69
2023/01/11 11:44:19;;;;;;;4.43;1.55;;;9.40;99.90;;;;;;5041097;28;20228;-69
2023/01/11 11:47:02;;;;;;;7.50;1.40;;;9.40;99.90;;;;;;5042446;28;20205;-69
2023/01/11 11:49:30;;;;;;;7.13;1.67;;;9.50;99.90;;;;;;5044506;28;20200;-69
2023/01/11 11:51:59;;;;;;;4.95;1.55;;;9.50;99.90;;;;;;5041925;28;20205;-69
2023/01/11 11:54:30;;;;;;;7.47;2.00;;;9.50;99.90;;;;;;5037837;28;20209;-69
2023/01/11 11:56:59;;;;;;;14.85;2.33;;;9.50;99.90;;;;;;5015101;28;20205;-69
2023/01/11 11:59:31;;;;;;;9.27;2.30;;;9.50;99.90;;;;;;5045313;28;20205;-69
2023/01/11 12:02:02;;;;;;;7.07;2.05;;;9.50;99.90;;;;;;5042732;28;20194;-69
2023/01/11 12:04:45;;;;;;;6.32;2.15;;;9.50;99.90;;;;;;5047067;28;20276;-69
2023/01/11 12:07:15;;;;;;;4.57;1.75;;;9.50;99.90;;;;;;5043032;28;20286;-69
2023/01/11 12:09:46;;;;;;;8.10;1.67;;;9.50;99.90;;;;;;5034931;28;20209;-69
2023/01/11 12:12:18;;;;;;;6.90;2.20;;;9.50;99.90;;;;;;5016841;28;20209;-69
2023/01/11 12:15:06;;;;;;;9.02;2.00;;;9.50;99.90;;;;;;5042176;28;20236;-69
2023/01/11 12:17:35;;;;;;;9.70;2.15;;;9.40;99.90;;;;;;5050455;28;20189;-69
2023/01/11 12:20:02;;;;;;;10.32;1.75;;;9.40;99.90;;;;;;5044551;28;20208;-69
2023/01/11 12:22:29;;;;;;;5.75;1.80;;;9.40;99.90;;;;;;5051141;28;20193;-69
2023/01/11 12:25:06;;;;;;;6.43;1.75;;;9.40;99.90;;;;;;5038261;28;20240;-69
2023/01/11 12:27:40;;;;;;;5.90;2.25;;;9.40;99.90;;;;;;5017629;28;20232;-69
2023/01/11 12:30:18;;;;;;;10.55;2.50;;;9.50;99.90;;;;;;5041402;28;20208;-69
2023/01/11 12:33:14;;;;;;;4.10;1.88;;;9.50;99.90;;;;;;5047006;28;20228;-69
2023/01/11 12:35:51;;;;;;;9.38;1.55;;;9.50;99.90;;;;;;5045106;28;20804;-69
2023/01/11 12:38:36;;;;;;;3.83;1.42;;;9.50;99.90;;;;;;5033622;28;20791;-69
2023/01/11 12:44:14;;;;;;;7.32;1.90;;;9.60;99.90;;;;;;5012526;28;20270;-69
2023/01/11 12:46:53;;;;;;;15.18;2.50;;;9.60;99.90;;;;;;5040987;28;20198;-69
2023/01/11 12:49:33;;;;;;;10.10;1.85;;;9.60;99.90;;;;;;5044911;28;20192;-69
2023/01/11 12:52:27;;;;;;;8.48;1.60;;;9.60;99.90;;;;;;5040541;28;20201;-69
2023/01/11 12:55:09;;;;;;;5.60;1.75;;;9.50;99.90;;;;;;5044651;28;20215;-69
2023/01/11 12:57:50;;;;;;;5.65;1.67;;;9.50;99.90;;;;;;5015057;28;21011;-69
2023/01/11 13:00:30;;;;;;;5.80;1.40;;;9.50;99.90;;;;;;5007217;28;20229;-70
2023/01/11 13:03:23;;;;;;;8.27;2.00;;;9.50;99.90;;;;;;5030371;28;21180;-69
2023/01/11 13:06:01;;;;;;;7.05;2.20;;;9.50;99.90;;;;;;5025703;28;20888;-69
2023/01/11 13:08:36;;;;;;;8.65;2.50;;;9.50;99.90;;;;;;5043462;28;20207;-69
2023/01/11 13:11:11;;;;;;;3.88;1.60;;;9.50;99.90;;;;;;5042786;28;20546;-69
2023/01/11 13:13:55;;;;;;;9.52;2.15;;;9.50;99.90;;;;;;5037669;28;20199;-69
2023/01/11 13:16:29;;;;;;;8.38;2.22;;;9.50;99.90;;;;;;5041014;28;20858;-69
2023/01/11 13:19:01;;;;;;;7.32;2.25;;;9.50;99.90;;;;;;5047749;28;20201;-69
2023/01/11 13:21:34;;;;;;;4.95;1.73;;;9.50;99.90;;;;;;5037226;28;20201;-69
2023/01/11 13:24:08;;;;;;;6.70;1.55;;;9.50;99.90;;;;;;5045030;28;20277;-69
2023/01/11 13:26:37;;;;;;;9.48;2.00;;;9.60;99.90;;;;;;5047973;28;20277;-69
2023/01/11 13:29:14;;;;;;;9.18;1.73;;;9.60;99.90;;;;;;5009473;28;20267;-69
2023/01/11 13:31:42;;;;;;;4.93;1.55;;;9.60;99.90;;;;;;5051524;28;20201;-69
2023/01/11 13:34:16;;;;;;;10.43;2.35;;;9.80;99.90;;;;;;5045405;28;20201;-69
2023/01/11 13:36:51;;;;;;;10.00;2.20;;;9.60;99.90;;;;;;5040277;28;20701;-69
2023/01/11 13:39:23;;;;;;;8.63;1.75;;;9.60;99.90;;;;;;5048333;28;20208;-69
2023/01/11 13:41:53;;;;;;;5.00;1.83;;;9.60;99.90;;;;;;5051222;28;20696;-69
2023/01/11 13:44:24;;;;;;;4.80;1.20;;;9.50;99.90;;;;;;5035203;28;20231;-69
2023/01/11 13:46:59;;;;;;;12.20;2.25;;;9.40;99.90;;;;;;5017720;28;20864;-69
2023/01/11 13:49:41;;;;;;;8.75;2.05;;;9.50;99.90;;;;;;5021999;28;20243;-69